Time;durP1;ratioP1;P1;durP2;ratioP2;P2;SDS_P1;SDS_P2;PMS_P1;PMS_P2;Temp;Humidity;BMP_temperature;BMP_pressure;BME280_temperature;BME280_humidity;BME280_pressure;Samples;Min_cycle;Max_cycle;Signal;HPM_P1;HPM_P2
2021/06/12 00:00:22;;;;;;;3.50;2.30;;;18.20;99.90;;;;;;5075878;28;20005;-90
2021/06/12 00:02:49;;;;;;;2.67;2.45;;;18.10;99.90;;;;;;5076169;28;20564;-90
2021/06/12 00:05:15;;;;;;;3.35;2.40;;;18.10;99.90;;;;;;5074107;28;20024;-90
2021/06/12 00:07:41;;;;;;;6.10;2.42;;;18.00;99.90;;;;;;5074851;28;20028;-90
2021/06/12 00:10:30;;;;;;;3.63;2.80;;;18.00;99.90;;;;;;5074225;28;20028;-90
2021/06/12 00:13:00;;;;;;;3.80;2.50;;;18.00;99.90;;;;;;5074472;28;20028;-90
2021/06/12 00:15:27;;;;;;;2.83;2.47;;;17.90;99.90;;;;;;5073798;28;20389;-90
2021/06/12 00:17:52;;;;;;;4.10;3.08;;;17.80;99.90;;;;;;5073587;28;20025;-90
2021/06/12 00:20:21;;;;;;;3.65;2.80;;;17.80;99.90;;;;;;5075860;28;20035;-91
2021/06/12 00:22:47;;;;;;;5.38;2.90;;;17.70;99.90;;;;;;5074592;28;20439;-90
2021/06/12 00:25:15;;;;;;;3.65;2.72;;;17.50;99.90;;;;;;5074358;28;20108;-90
2021/06/12 00:27:41;;;;;;;3.47;2.88;;;17.50;99.90;;;;;;5074424;28;20389;-90
2021/06/12 00:30:11;;;;;;;3.50;3.10;;;17.60;99.90;;;;;;5074461;28;20024;-91
2021/06/12 00:32:38;;;;;;;4.50;2.80;;;17.50;99.90;;;;;;5074143;28;20031;-90
2021/06/12 00:35:06;;;;;;;3.00;2.38;;;17.40;99.90;;;;;;5074350;28;20024;-90
2021/06/12 00:37:31;;;;;;;4.60;3.30;;;17.40;99.90;;;;;;5074201;28;20028;-91
2021/06/12 00:39:57;;;;;;;3.42;3.03;;;17.30;99.90;;;;;;5074273;28;20024;-91
2021/06/12 00:42:23;;;;;;;4.32;3.10;;;17.30;99.90;;;;;;5074160;28;20020;-91
2021/06/12 00:44:48;;;;;;;4.57;3.20;;;17.30;99.90;;;;;;5074210;28;20035;-91
2021/06/12 00:47:14;;;;;;;5.30;3.20;;;17.30;99.90;;;;;;5074245;28;20035;-91
2021/06/12 00:49:40;;;;;;;3.65;3.15;;;17.20;99.90;;;;;;5075395;28;20028;-92
2021/06/12 00:52:06;;;;;;;4.63;3.58;;;17.20;99.90;;;;;;5074237;28;20035;-91
2021/06/12 00:54:31;;;;;;;6.38;3.33;;;17.10;99.90;;;;;;5074440;28;20489;-91
2021/06/12 00:56:58;;;;;;;5.72;3.55;;;17.10;99.90;;;;;;5075621;28;20035;-91
2021/06/12 00:59:24;;;;;;;6.22;3.45;;;17.00;99.90;;;;;;5073081;28;20031;-91
2021/06/12 01:01:53;;;;;;;4.45;3.60;;;17.00;99.90;;;;;;5073916;28;20028;-91
2021/06/12 01:04:18;;;;;;;4.85;4.05;;;17.00;99.90;;;;;;5073965;28;20440;-90
2021/06/12 01:06:51;;;;;;;6.15;4.47;;;17.10;99.90;;;;;;5073958;28;20050;-90
2021/06/12 01:09:21;;;;;;;;;;;17.10;99.90;;;;;;5074455;28;20063;-91
2021/06/12 01:12:13;;;;;;;5.63;3.70;;;17.10;99.90;;;;;;5074924;28;19962;-90
2021/06/12 01:14:42;;;;;;;6.88;4.30;;;17.10;99.90;;;;;;5074367;28;20028;-91
2021/06/12 01:17:18;;;;;;;7.28;5.07;;;17.00;99.90;;;;;;5074427;28;20385;-91
2021/06/12 01:20:05;;;;;;;5.38;4.60;;;17.00;99.90;;;;;;5073635;28;20082;-91
2021/06/12 01:23:29;;;;;;;4.70;4.20;;;16.90;99.90;;;;;;5073818;28;20081;-91
2021/06/12 01:26:00;;;;;;;6.63;4.38;;;17.00;99.90;;;;;;4986736;28;20042;-91
2021/06/12 01:29:02;;;;;;;9.25;4.60;;;16.90;99.90;;;;;;4996899;28;20038;-91
2021/06/12 01:31:29;;;;;;;5.87;4.63;;;17.00;99.90;;;;;;5053779;28;20036;-91
2021/06/12 01:33:58;;;;;;;7.28;4.80;;;16.80;99.90;;;;;;5073558;28;20683;-91
2021/06/12 01:36:25;;;;;;;5.78;4.63;;;16.80;99.90;;;;;;5073535;28;20029;-91
2021/06/12 01:38:52;;;;;;;8.35;5.13;;;16.70;99.90;;;;;;5073273;28;20025;-90
2021/06/12 01:41:21;;;;;;;6.32;5.40;;;16.70;99.90;;;;;;5072938;28;20044;-91
2021/06/12 01:43:48;;;;;;;7.95;5.30;;;16.70;99.90;;;;;;5072700;28;20029;-91
2021/06/12 01:46:14;;;;;;;6.95;5.63;;;16.70;99.90;;;;;;5073524;28;20025;-91
2021/06/12 01:48:43;;;;;;;6.78;5.55;;;16.60;99.90;;;;;;5073988;28;20021;-91
2021/06/12 01:51:11;;;;;;;6.97;5.72;;;16.60;99.90;;;;;;5073392;28;20082;-91
2021/06/12 01:53:40;;;;;;;6.88;5.65;;;16.60;99.90;;;;;;5073394;28;20585;-91
2021/06/12 01:56:08;;;;;;;7.47;5.53;;;16.60;99.90;;;;;;5073867;28;20043;-89
2021/06/12 01:58:37;;;;;;;8.48;5.85;;;16.50;99.90;;;;;;5073361;28;20758;-89
2021/06/12 02:01:05;;;;;;;7.57;6.38;;;16.50;99.90;;;;;;5074483;28;20036;-90
2021/06/12 02:03:31;;;;;;;9.23;6.28;;;16.50;99.90;;;;;;5074246;28;20027;-92
2021/06/12 02:05:59;;;;;;;7.30;6.28;;;16.30;99.90;;;;;;5073321;28;20452;-92
2021/06/12 02:08:26;;;;;;;10.98;7.22;;;16.30;99.90;;;;;;5073096;28;20028;-92
2021/06/12 02:10:52;;;;;;;11.50;8.55;;;16.30;99.90;;;;;;5073148;28;20427;-92
2021/06/12 02:13:22;;;;;;;11.70;9.55;;;16.40;99.90;;;;;;5073115;28;20124;-92
2021/06/12 02:15:53;;;;;;;13.57;10.10;;;16.40;99.90;;;;;;5073342;28;20029;-91
2021/06/12 02:18:19;;;;;;;13.48;10.57;;;16.50;99.90;;;;;;5073268;28;20029;-92
2021/06/12 02:20:45;;;;;;;13.93;10.93;;;16.50;99.90;;;;;;5073184;28;20025;-91
2021/06/12 02:23:12;;;;;;;14.40;11.57;;;16.60;99.90;;;;;;5074214;28;20005;-90
2021/06/12 02:25:38;;;;;;;13.38;11.65;;;16.60;99.90;;;;;;5073206;28;20127;-91
2021/06/12 02:28:10;;;;;;;16.48;12.13;;;16.60;99.90;;;;;;5073042;28;20039;-91
2021/06/12 02:30:53;;;;;;;17.52;12.45;;;16.50;99.90;;;;;;5072626;28;20024;-92
2021/06/12 02:33:21;;;;;;;20.45;14.77;;;16.50;99.90;;;;;;5073977;28;20515;-90
2021/06/12 02:35:47;;;;;;;19.05;14.10;;;16.50;99.90;;;;;;5072457;28;20086;-90
2021/06/12 02:38:12;;;;;;;18.60;14.75;;;16.50;99.90;;;;;;5075076;28;20548;-91
2021/06/12 02:40:39;;;;;;;22.83;15.95;;;16.40;99.90;;;;;;5076018;28;20032;-91
2021/06/12 02:43:04;;;;;;;20.67;15.10;;;16.40;99.90;;;;;;5076787;28;20063;-91
2021/06/12 02:45:31;;;;;;;23.10;15.30;;;16.50;99.90;;;;;;5076678;28;20017;-90
2021/06/12 02:48:02;;;;;;;21.42;15.68;;;16.60;99.90;;;;;;5077687;28;20111;-90
2021/06/12 02:50:32;;;;;;;21.50;17.13;;;16.60;99.90;;;;;;5077425;28;20078;-89
2021/06/12 02:53:09;;;;;;;22.50;16.40;;;16.70;99.90;;;;;;5078166;28;20859;-89
2021/06/12 02:55:41;;;;;;;23.90;18.02;;;16.70;99.90;;;;;;5076615;28;20495;-89
2021/06/12 02:58:09;;;;;;;25.40;18.60;;;16.70;99.90;;;;;;5075903;28;20024;-89
2021/06/12 03:00:37;;;;;;;28.20;19.50;;;16.60;99.90;;;;;;5076738;28;20024;-89
2021/06/12 03:03:04;;;;;;;26.08;19.95;;;16.60;99.90;;;;;;5076110;28;20452;-89
2021/06/12 03:05:38;;;;;;;26.50;19.75;;;16.60;99.90;;;;;;5076027;28;20116;-90
2021/06/12 03:08:05;;;;;;;29.27;20.77;;;16.40;99.90;;;;;;5076317;28;20107;-90
2021/06/12 03:10:35;;;;;;;25.00;19.00;;;16.40;99.90;;;;;;5076077;28;20028;-89
2021/06/12 03:13:07;;;;;;;25.52;19.52;;;16.50;99.90;;;;;;5077122;28;20055;-90
2021/06/12 03:15:34;;;;;;;27.45;19.42;;;16.60;99.90;;;;;;5076097;28;20036;-91
2021/06/12 03:18:01;;;;;;;30.58;21.35;;;16.60;99.90;;;;;;5076026;28;20120;-91
2021/06/12 03:20:28;;;;;;;30.92;21.25;;;16.50;99.90;;;;;;5076056;28;20481;-92
2021/06/12 03:22:54;;;;;;;32.05;22.13;;;16.40;99.90;;;;;;5086237;28;20099;-92
2021/06/12 03:25:22;;;;;;;31.27;21.10;;;16.40;99.90;;;;;;5086370;28;20041;-92
2021/06/12 03:27:48;;;;;;;30.15;21.23;;;16.40;99.90;;;;;;5069879;28;20040;-91
2021/06/12 03:30:15;;;;;;;33.13;21.42;;;16.40;99.90;;;;;;5081592;28;20040;-92
2021/06/12 03:32:41;;;;;;;30.77;21.13;;;16.40;99.90;;;;;;5080251;28;20494;-92
2021/06/12 03:35:10;;;;;;;35.70;23.67;;;16.30;99.90;;;;;;5077145;28;20029;-92
2021/06/12 03:37:38;;;;;;;35.83;23.20;;;16.30;99.90;;;;;;5075643;28;20485;-92
2021/06/12 03:40:05;;;;;;;35.47;23.90;;;16.20;99.90;;;;;;5075697;28;20020;-92
2021/06/12 03:42:31;;;;;;;34.20;23.55;;;16.10;99.90;;;;;;5075519;28;20028;-92
2021/06/12 03:44:58;;;;;;;34.05;22.48;;;16.10;99.90;;;;;;5075427;28;20397;-92
2021/06/12 03:47:25;;;;;;;41.00;26.05;;;16.10;99.90;;;;;;5075431;28;20370;-91
2021/06/12 03:49:51;;;;;;;35.92;24.48;;;16.10;99.90;;;;;;5076274;28;20082;-92
2021/06/12 03:52:23;;;;;;;34.75;24.27;;;16.10;99.90;;;;;;5075195;28;20389;-92
2021/06/12 03:54:49;;;;;;;37.28;24.48;;;16.20;99.90;;;;;;5076127;28;20366;-91
2021/06/12 03:57:14;;;;;;;34.90;24.15;;;16.30;99.90;;;;;;5077397;28;20027;-92
2021/06/12 03:59:43;;;;;;;34.78;23.30;;;16.30;99.90;;;;;;5076216;28;20473;-91
2021/06/12 04:02:11;;;;;;;32.83;22.45;;;16.30;99.90;;;;;;5075001;28;20036;-92
2021/06/12 04:04:37;;;;;;;35.55;23.95;;;16.30;99.90;;;;;;5075078;28;20031;-92
2021/06/12 04:07:03;;;;;;;36.85;25.20;;;16.20;99.90;;;;;;5074824;28;20017;-92
2021/06/12 04:09:28;;;;;;;37.83;23.45;;;16.30;99.90;;;;;;5075945;28;20032;-92
2021/06/12 04:11:54;;;;;;;32.40;22.75;;;16.30;99.90;;;;;;5074812;28;20020;-92
2021/06/12 04:14:20;;;;;;;37.70;24.98;;;16.30;99.90;;;;;;5074054;28;20036;-91
2021/06/12 04:16:45;;;;;;;33.80;22.23;;;16.20;99.90;;;;;;5074734;28;20111;-92
2021/06/12 04:19:11;;;;;;;40.00;25.95;;;16.20;99.90;;;;;;5076537;28;20025;-92
2021/06/12 04:21:36;;;;;;;31.65;21.60;;;16.20;99.90;;;;;;5076455;28;20055;-91
2021/06/12 04:24:02;;;;;;;36.88;24.42;;;16.30;99.90;;;;;;5074661;28;20064;-92
2021/06/12 04:26:28;;;;;;;38.08;23.52;;;16.30;99.90;;;;;;5074218;28;20063;-91
2021/06/12 04:28:54;;;;;;;33.85;23.13;;;16.40;99.90;;;;;;5074517;28;20024;-92
2021/06/12 04:31:19;;;;;;;34.78;23.90;;;16.50;99.90;;;;;;5074518;28;20077;-92
2021/06/12 04:33:45;;;;;;;35.10;24.45;;;16.50;99.90;;;;;;5074507;28;20428;-92
2021/06/12 04:36:11;;;;;;;36.17;23.63;;;16.50;99.90;;;;;;5074410;28;20025;-92
2021/06/12 04:38:36;;;;;;;36.28;24.05;;;16.50;99.90;;;;;;5075071;28;20036;-92
2021/06/12 04:41:02;;;;;;;36.85;24.73;;;16.50;99.90;;;;;;5074565;28;20108;-92
2021/06/12 04:43:27;;;;;;;37.53;24.35;;;16.60;99.90;;;;;;5074270;28;20473;-90
2021/06/12 04:45:53;;;;;;;32.72;23.92;;;16.60;99.90;;;;;;5074058;28;20008;-90
2021/06/12 04:48:19;;;;;;;34.65;24.20;;;16.70;99.90;;;;;;5074373;28;20038;-91
2021/06/12 04:50:44;;;;;;;38.15;23.85;;;16.70;99.90;;;;;;5074574;28;20474;-91
2021/06/12 04:53:11;;;;;;;35.50;23.40;;;16.80;99.90;;;;;;5073429;28;20540;-92
2021/06/12 04:55:37;;;;;;;34.45;23.90;;;16.80;99.90;;;;;;5074892;28;20028;-91
2021/06/12 04:58:04;;;;;;;37.22;25.20;;;16.70;99.90;;;;;;5073802;28;20041;-91
2021/06/12 05:00:30;;;;;;;38.67;24.98;;;16.70;99.90;;;;;;5074449;28;20073;-92
2021/06/12 05:02:56;;;;;;;33.63;23.35;;;16.70;99.90;;;;;;5075006;28;20021;-91
2021/06/12 05:05:22;;;;;;;36.42;23.55;;;16.70;99.90;;;;;;5074084;28;20028;-92
2021/06/12 05:07:47;;;;;;;29.42;21.85;;;16.80;99.90;;;;;;5074180;28;20111;-92
2021/06/12 05:10:13;;;;;;;35.95;25.23;;;16.70;99.90;;;;;;5075231;28;20048;-92
2021/06/12 05:12:39;;;;;;;35.08;23.50;;;16.70;99.90;;;;;;5076429;28;20469;-92
2021/06/12 05:15:08;;;;;;;36.47;24.23;;;16.80;99.90;;;;;;5074989;28;20051;-92
2021/06/12 05:17:34;;;;;;;32.53;23.20;;;17.00;99.90;;;;;;5075008;28;20139;-90
2021/06/12 05:20:00;;;;;;;34.22;24.50;;;17.10;99.90;;;;;;5074338;28;20111;-90
2021/06/12 05:22:27;;;;;;;33.67;24.13;;;17.30;99.90;;;;;;5074053;28;20508;-92
2021/06/12 05:24:56;;;;;;;34.83;24.92;;;17.30;99.90;;;;;;5076521;28;20518;-91
2021/06/12 05:27:23;;;;;;;34.35;24.63;;;17.30;99.90;;;;;;5073821;28;20008;-91
2021/06/12 05:29:48;;;;;;;32.95;23.70;;;17.30;99.90;;;;;;5073918;28;20023;-92
2021/06/12 05:32:15;;;;;;;31.95;23.60;;;17.40;99.90;;;;;;5074823;28;20020;-91
2021/06/12 05:34:42;;;;;;;33.30;24.10;;;17.40;99.90;;;;;;5074505;28;20514;-91
2021/06/12 05:37:09;;;;;;;32.40;22.38;;;17.50;99.90;;;;;;5074966;28;20381;-90
2021/06/12 05:39:34;;;;;;;31.70;22.70;;;17.50;99.90;;;;;;5072449;28;20020;-91
2021/06/12 05:42:00;;;;;;;27.90;21.67;;;17.60;99.90;;;;;;5073131;28;20381;-91
2021/06/12 05:44:26;;;;;;;29.50;22.15;;;17.60;99.90;;;;;;5073118;28;20461;-91
2021/06/12 05:46:52;;;;;;;28.13;21.45;;;17.50;99.90;;;;;;5073485;28;20025;-91
2021/06/12 05:49:19;;;;;;;28.83;20.77;;;17.50;99.90;;;;;;5077460;28;20035;-90
2021/06/12 05:51:45;;;;;;;28.55;22.17;;;17.50;99.90;;;;;;5074631;28;20021;-89
2021/06/12 05:54:11;;;;;;;24.77;21.92;;;17.60;99.90;;;;;;5074535;28;20047;-90
2021/06/12 05:56:36;;;;;;;25.55;21.10;;;17.60;99.90;;;;;;5074732;28;20637;-91
2021/06/12 05:59:02;;;;;;;26.42;19.83;;;17.70;99.90;;;;;;5073253;28;20415;-90
2021/06/12 06:01:28;;;;;;;24.05;19.88;;;17.80;99.90;;;;;;5073205;28;20028;-90
2021/06/12 06:03:54;;;;;;;23.42;20.20;;;17.80;99.90;;;;;;5074883;28;20024;-89
2021/06/12 06:06:19;;;;;;;27.20;20.48;;;17.80;99.90;;;;;;5073215;28;20009;-89
2021/06/12 06:08:45;;;;;;;25.25;20.92;;;17.80;99.90;;;;;;5074026;28;20024;-89
2021/06/12 06:11:11;;;;;;;25.77;20.65;;;17.90;99.90;;;;;;5073352;28;20004;-91
2021/06/12 06:13:38;;;;;;;23.15;19.85;;;17.90;99.90;;;;;;5075155;28;20626;-90
2021/06/12 06:16:04;;;;;;;24.17;21.23;;;18.00;99.90;;;;;;5077672;28;20036;-91
2021/06/12 06:18:30;;;;;;;25.05;19.77;;;18.00;99.90;;;;;;5077094;28;20020;-90
2021/06/12 06:20:57;;;;;;;24.23;20.02;;;18.10;99.90;;;;;;5077210;28;20032;-91
2021/06/12 06:23:22;;;;;;;24.30;20.42;;;18.00;99.90;;;;;;5077304;28;20427;-91
2021/06/12 06:25:48;;;;;;;24.10;19.20;;;18.00;99.90;;;;;;5078093;28;20036;-90
2021/06/12 06:28:14;;;;;;;23.10;19.55;;;17.90;99.90;;;;;;5077541;28;20066;-90
2021/06/12 06:30:39;;;;;;;23.23;20.13;;;17.90;99.90;;;;;;5078873;28;20042;-90
2021/06/12 06:33:05;;;;;;;23.40;19.13;;;17.90;99.90;;;;;;5079369;28;20028;-90
2021/06/12 06:35:31;;;;;;;23.40;19.15;;;17.90;99.90;;;;;;5078274;28;20020;-90
2021/06/12 06:37:57;;;;;;;22.63;18.83;;;17.80;99.90;;;;;;5077847;28;20024;-91
2021/06/12 06:40:22;;;;;;;25.38;20.05;;;17.80;99.90;;;;;;5077666;28;20029;-90
2021/06/12 06:42:48;;;;;;;24.05;19.10;;;17.90;99.90;;;;;;5076543;28;20044;-90
2021/06/12 06:45:14;;;;;;;24.33;19.42;;;17.90;99.90;;;;;;5077878;28;20011;-91
2021/06/12 06:47:39;;;;;;;24.20;19.45;;;18.00;99.90;;;;;;5077515;28;20435;-91
2021/06/12 06:50:07;;;;;;;22.13;19.13;;;18.00;99.90;;;;;;5078485;28;20096;-90
2021/06/12 06:52:33;;;;;;;22.75;20.05;;;17.90;99.90;;;;;;5075417;28;20485;-81
2021/06/12 06:54:59;;;;;;;33.10;21.63;;;17.80;99.90;;;;;;5076160;28;20031;-81
2021/06/12 06:57:25;;;;;;;26.55;21.50;;;17.90;99.90;;;;;;5073353;28;20033;-79
2021/06/12 06:59:51;;;;;;;29.88;21.50;;;17.90;99.90;;;;;;5074668;28;20029;-80
2021/06/12 07:02:16;;;;;;;27.70;22.67;;;17.80;99.90;;;;;;5074926;28;20032;-80
2021/06/12 07:04:42;;;;;;;27.00;21.67;;;17.80;99.90;;;;;;5076859;28;20051;-80
2021/06/12 07:07:08;;;;;;;25.88;21.48;;;17.80;99.90;;;;;;5075464;28;20020;-80
2021/06/12 07:09:34;;;;;;;26.08;22.02;;;17.80;99.90;;;;;;5065122;28;20086;-81
2021/06/12 07:12:01;;;;;;;28.35;21.42;;;17.80;99.90;;;;;;5052392;28;20147;-80
2021/06/12 07:14:27;;;;;;;26.70;21.35;;;17.90;99.90;;;;;;5056056;28;20090;-81
2021/06/12 07:16:53;;;;;;;25.05;21.45;;;17.90;99.90;;;;;;5057128;28;20021;-81
2021/06/12 07:19:20;;;;;;;24.20;21.60;;;17.90;99.90;;;;;;5056749;28;20025;-81
2021/06/12 07:21:46;;;;;;;25.90;21.15;;;17.90;99.90;;;;;;5056903;28;20103;-81
2021/06/12 07:24:13;;;;;;;25.00;20.45;;;18.00;99.90;;;;;;5067630;28;20166;-81
2021/06/12 07:26:39;;;;;;;24.33;19.85;;;18.10;99.90;;;;;;5075798;28;20635;-81
2021/06/12 07:29:05;;;;;;;24.15;20.65;;;18.20;99.90;;;;;;5076167;28;20055;-81
2021/06/12 07:31:30;;;;;;;24.58;20.67;;;18.20;99.90;;;;;;5075409;28;20051;-81
2021/06/12 07:33:56;;;;;;;24.98;21.20;;;18.00;99.90;;;;;;5076706;28;20106;-81
2021/06/12 07:36:22;;;;;;;24.20;21.48;;;18.00;99.90;;;;;;5070176;28;20480;-81
2021/06/12 07:38:48;;;;;;;24.30;21.30;;;17.90;99.90;;;;;;5075591;28;20048;-81
2021/06/12 07:41:14;;;;;;;23.85;19.90;;;18.00;99.90;;;;;;5076296;28;20571;-81
2021/06/12 07:43:39;;;;;;;25.48;21.40;;;18.00;99.90;;;;;;5075494;28;20032;-81
2021/06/12 07:46:05;;;;;;;24.45;20.73;;;18.20;99.90;;;;;;5071412;28;20108;-81
2021/06/12 07:48:31;;;;;;;25.67;20.38;;;18.00;99.90;;;;;;5075238;28;20041;-81
2021/06/12 07:50:57;;;;;;;22.90;20.38;;;18.10;99.90;;;;;;5076683;28;20036;-81
2021/06/12 07:53:22;;;;;;;22.35;20.02;;;18.10;99.90;;;;;;5072455;28;20028;-80
2021/06/12 07:55:48;;;;;;;22.42;19.98;;;18.20;99.90;;;;;;5076748;28;20028;-80
2021/06/12 07:58:14;;;;;;;22.48;20.00;;;18.30;99.90;;;;;;5074527;28;20021;-80
2021/06/12 08:00:40;;;;;;;21.92;19.50;;;18.40;99.90;;;;;;5074704;28;20730;-81
2021/06/12 08:03:05;;;;;;;22.30;19.77;;;18.20;99.90;;;;;;5065680;28;20006;-81
2021/06/12 08:05:31;;;;;;;22.33;19.65;;;18.30;99.90;;;;;;5075661;28;20107;-81
2021/06/12 08:07:58;;;;;;;23.67;19.95;;;18.30;99.90;;;;;;5065915;28;20100;-80
2021/06/12 08:10:24;;;;;;;22.10;19.70;;;18.40;99.90;;;;;;5073409;28;20427;-81
2021/06/12 08:12:51;;;;;;;22.83;20.42;;;18.50;99.90;;;;;;5074026;28;20031;-81
2021/06/12 08:15:17;;;;;;;22.30;19.90;;;18.60;99.90;;;;;;5075564;28;20032;-81
2021/06/12 08:17:44;;;;;;;24.88;20.48;;;18.60;99.90;;;;;;5075090;28;20029;-81
2021/06/12 08:20:10;;;;;;;29.55;21.98;;;18.70;99.90;;;;;;5074141;28;20025;-81
2021/06/12 08:22:36;;;;;;;25.23;20.42;;;18.60;99.90;;;;;;5074514;28;20033;-81
2021/06/12 08:25:04;;;;;;;26.55;21.17;;;18.90;99.90;;;;;;5074635;28;20048;-81
2021/06/12 08:27:30;;;;;;;23.35;20.52;;;19.00;99.90;;;;;;5073998;28;20073;-81
2021/06/12 08:29:56;;;;;;;23.23;20.65;;;18.90;99.90;;;;;;5075045;28;20062;-81
2021/06/12 08:32:22;;;;;;;22.85;20.48;;;19.20;99.90;;;;;;5074681;28;20021;-81
2021/06/12 08:34:48;;;;;;;22.33;20.02;;;19.50;99.90;;;;;;5075193;28;20044;-81
2021/06/12 08:37:14;;;;;;;21.58;19.00;;;20.00;99.90;;;;;;5075469;28;20036;-81
2021/06/12 08:39:40;;;;;;;21.77;19.05;;;20.20;99.90;;;;;;5066867;28;20028;-81
2021/06/12 08:42:06;;;;;;;20.80;18.58;;;20.30;99.90;;;;;;5054865;28;20032;-81
2021/06/12 08:44:34;;;;;;;20.27;18.27;;;20.80;99.90;;;;;;5054482;28;20052;-81
2021/06/12 08:47:00;;;;;;;20.73;18.63;;;20.90;99.90;;;;;;5055175;28;20437;-81
2021/06/12 08:49:26;;;;;;;20.10;17.88;;;21.00;99.90;;;;;;5061790;28;20024;-81
2021/06/12 08:51:52;;;;;;;20.63;18.15;;;20.90;99.90;;;;;;5071620;28;20032;-81
2021/06/12 08:54:20;;;;;;;21.48;18.20;;;20.70;99.90;;;;;;5076053;28;20031;-80
2021/06/12 08:56:46;;;;;;;20.45;18.25;;;20.70;99.90;;;;;;5073701;28;20025;-80
2021/06/12 08:59:13;;;;;;;20.92;18.83;;;20.80;99.90;;;;;;5074525;28;20404;-81
2021/06/12 09:01:43;;;;;;;20.48;18.48;;;20.80;99.90;;;;;;5055734;28;20374;-80
2021/06/12 09:04:09;;;;;;;18.10;16.30;;;20.90;99.90;;;;;;5055323;28;20013;-80
2021/06/12 09:06:35;;;;;;;18.17;16.38;;;21.10;99.90;;;;;;5074128;28;20476;-80
2021/06/12 09:09:01;;;;;;;18.90;16.98;;;21.30;99.90;;;;;;5075808;28;20100;-79
2021/06/12 09:11:32;;;;;;;18.60;16.73;;;21.30;99.90;;;;;;5074900;28;20354;-81
2021/06/12 09:14:01;;;;;;;19.00;15.85;;;21.20;99.90;;;;;;5075575;28;20020;-80
2021/06/12 09:16:34;;;;;;;18.95;17.00;;;21.10;99.90;;;;;;5073927;28;20477;-80
2021/06/12 09:19:08;;;;;;;20.45;17.92;;;21.10;99.90;;;;;;5073807;28;20547;-80
2021/06/12 09:21:36;;;;;;;19.63;17.55;;;20.80;99.90;;;;;;5076156;28;20745;-80
2021/06/12 09:24:05;;;;;;;19.35;16.83;;;20.70;99.90;;;;;;5072246;28;20021;-80
2021/06/12 09:26:50;;;;;;;18.13;16.23;;;20.90;99.90;;;;;;5075027;28;20078;-80
2021/06/12 09:29:20;;;;;;;18.35;16.13;;;21.30;99.90;;;;;;5072051;28;20024;-81
2021/06/12 09:31:53;;;;;;;17.65;15.82;;;21.70;99.90;;;;;;5074577;28;20029;-80
2021/06/12 09:34:21;;;;;;;16.92;15.20;;;21.90;99.90;;;;;;5054185;28;20124;-81
2021/06/12 09:36:48;;;;;;;17.48;15.77;;;22.60;99.90;;;;;;5059795;28;20061;-79
2021/06/12 09:39:23;;;;;;;17.70;15.57;;;22.60;99.90;;;;;;5067907;28;20033;-78
2021/06/12 09:41:51;;;;;;;19.27;15.27;;;22.60;99.90;;;;;;5069385;28;20055;-79
2021/06/12 09:44:33;;;;;;;16.48;14.88;;;22.50;99.90;;;;;;5070222;28;20031;-80
2021/06/12 09:47:00;;;;;;;17.17;15.32;;;22.80;99.90;;;;;;5062421;28;20108;-80
2021/06/12 09:49:36;;;;;;;19.38;15.07;;;23.10;99.90;;;;;;5070552;28;20039;-80
2021/06/12 09:52:13;;;;;;;21.83;15.52;;;23.20;99.90;;;;;;5069817;28;20021;-80
2021/06/12 09:54:47;;;;;;;15.55;14.02;;;23.30;99.90;;;;;;5076773;28;20029;-79
2021/06/12 09:57:19;;;;;;;15.60;13.80;;;23.60;99.90;;;;;;5062575;28;20032;-79
2021/06/12 09:59:50;;;;;;;14.70;13.30;;;23.80;99.90;;;;;;5078886;28;20028;-79
2021/06/12 10:02:36;;;;;;;14.97;13.40;;;24.20;99.90;;;;;;5080025;28;20024;-79
2021/06/12 10:05:04;;;;;;;14.35;12.95;;;25.20;99.90;;;;;;5066487;28;20039;-78
2021/06/12 10:07:30;;;;;;;13.00;11.70;;;25.50;99.90;;;;;;5070176;28;20110;-78
2021/06/12 10:09:59;;;;;;;14.18;12.88;;;25.30;99.90;;;;;;5079314;28;20021;-78
2021/06/12 10:12:26;;;;;;;14.35;12.70;;;25.20;99.90;;;;;;5074642;28;20021;-80
2021/06/12 10:14:52;;;;;;;16.20;14.50;;;25.10;99.90;;;;;;5080312;28;20048;-80
2021/06/12 10:17:21;;;;;;;15.07;13.70;;;24.20;99.90;;;;;;5081253;28;20024;-80
2021/06/12 10:19:50;;;;;;;14.82;13.43;;;23.90;99.90;;;;;;5080472;28;20032;-80
2021/06/12 10:22:16;;;;;;;13.85;12.43;;;24.30;99.90;;;;;;5080591;28;20385;-80
2021/06/12 10:24:42;;;;;;;13.25;11.95;;;24.60;99.90;;;;;;5079018;28;20021;-80
2021/06/12 10:27:08;;;;;;;13.63;12.23;;;25.20;99.90;;;;;;5081134;28;20103;-80
2021/06/12 10:29:35;;;;;;;13.80;12.45;;;25.50;99.90;;;;;;5079743;28;20042;-80
2021/06/12 10:32:01;;;;;;;13.38;11.00;;;24.70;99.90;;;;;;5082093;28;20029;-80
2021/06/12 10:34:28;;;;;;;12.70;10.98;;;24.40;99.90;;;;;;5077662;28;20021;-80
2021/06/12 10:37:08;;;;;;;13.77;12.23;;;23.90;99.90;;;;;;5081166;28;20051;-81
2021/06/12 10:39:39;;;;;;;13.02;11.90;;;24.10;99.90;;;;;;5083263;28;20025;-81
2021/06/12 10:42:08;;;;;;;13.93;11.30;;;24.40;99.90;;;;;;5081382;28;20048;-79
2021/06/12 10:44:34;;;;;;;12.23;11.00;;;24.90;99.90;;;;;;5076776;28;20033;-79
2021/06/12 10:46:59;;;;;;;14.35;11.38;;;25.10;99.90;;;;;;5076456;28;20031;-79
2021/06/12 10:49:31;;;;;;;10.73;9.63;;;23.80;99.90;;;;;;5077911;28;20024;-80
2021/06/12 10:51:57;;;;;;;11.30;10.02;;;23.70;99.90;;;;;;5077031;28;20024;-80
2021/06/12 10:54:25;;;;;;;12.27;10.73;;;23.70;99.90;;;;;;5077798;28;20036;-80
2021/06/12 10:56:55;;;;;;;12.05;10.85;;;23.80;99.90;;;;;;5077365;28;20017;-80
2021/06/12 10:59:33;;;;;;;11.52;10.27;;;24.70;99.90;;;;;;5075462;28;20030;-80
2021/06/12 11:02:08;;;;;;;8.88;8.07;;;25.30;99.90;;;;;;5076575;28;20035;-80
2021/06/12 11:05:03;;;;;;;9.05;8.15;;;25.80;99.90;;;;;;5077225;28;20031;-80
2021/06/12 11:07:37;;;;;;;8.20;7.50;;;25.50;99.90;;;;;;5073897;28;20036;-80
2021/06/12 11:10:12;;;;;;;9.57;8.60;;;25.10;99.60;;;;;;5075779;28;20044;-80
2021/06/12 11:12:39;;;;;;;8.25;7.40;;;24.20;99.90;;;;;;5075487;28;20023;-80
2021/06/12 11:15:22;;;;;;;10.13;7.70;;;23.90;99.90;;;;;;5076848;28;20082;-80
2021/06/12 11:18:11;;;;;;;8.68;7.88;;;23.60;99.90;;;;;;5076391;28;20477;-81
2021/06/12 11:20:41;;;;;;;7.25;6.57;;;23.70;99.90;;;;;;5076767;28;20124;-81
2021/06/12 11:23:07;;;;;;;9.90;5.95;;;25.10;99.70;;;;;;5078055;28;20019;-81
2021/06/12 11:25:33;;;;;;;6.20;5.53;;;26.10;96.70;;;;;;5076058;28;20036;-80
2021/06/12 11:28:38;;;;;;;6.65;5.90;;;27.30;94.50;;;;;;5076514;28;20033;-81
2021/06/12 11:31:27;;;;;;;6.10;5.50;;;27.30;93.00;;;;;;5076836;28;20058;-81
2021/06/12 11:34:24;;;;;;;6.95;4.50;;;27.10;91.90;;;;;;5076777;28;20629;-80
2021/06/12 11:37:18;;;;;;;5.05;3.72;;;26.90;90.10;;;;;;5075237;28;20031;-80
2021/06/12 11:39:49;;;;;;;5.82;3.60;;;27.70;87.60;;;;;;5067473;28;20040;-80
2021/06/12 11:42:15;;;;;;;4.17;3.80;;;28.00;86.30;;;;;;5075221;28;20017;-80
2021/06/12 11:44:40;;;;;;;4.43;3.10;;;28.00;83.00;;;;;;5075858;28;20480;-80
2021/06/12 11:47:06;;;;;;;3.65;2.20;;;28.00;82.70;;;;;;5075785;28;20025;-80
2021/06/12 11:49:32;;;;;;;3.72;2.38;;;28.60;75.80;;;;;;5075025;28;20128;-80
2021/06/12 11:51:57;;;;;;;3.45;2.90;;;28.90;74.50;;;;;;5066550;28;20104;-79
2021/06/12 11:54:31;;;;;;;3.20;2.90;;;29.20;72.30;;;;;;5072017;28;20021;-80
2021/06/12 11:57:02;;;;;;;4.30;3.20;;;28.50;72.50;;;;;;5074999;28;20416;-79
2021/06/12 11:59:31;;;;;;;4.57;2.75;;;27.60;74.70;;;;;;5075912;28;20485;-80
2021/06/12 12:02:02;;;;;;;3.67;3.30;;;27.10;78.70;;;;;;5074888;28;20025;-80
2021/06/12 12:04:40;;;;;;;4.90;3.83;;;26.90;77.30;;;;;;5075385;28;20016;-80
2021/06/12 12:07:11;;;;;;;3.90;3.30;;;26.90;78.20;;;;;;5074765;28;20111;-79
2021/06/12 12:09:44;;;;;;;5.93;3.72;;;27.10;77.80;;;;;;5072129;28;20021;-80
2021/06/12 12:12:14;;;;;;;6.65;4.28;;;26.90;80.30;;;;;;5070979;28;20025;-80
2021/06/12 12:14:41;;;;;;;6.63;4.97;;;26.40;82.60;;;;;;5069121;28;20226;-80
2021/06/12 12:17:20;;;;;;;6.43;5.03;;;25.80;85.40;;;;;;5072147;28;20027;-79
2021/06/12 12:20:04;;;;;;;5.57;4.90;;;25.50;87.40;;;;;;5056118;28;20389;-80
2021/06/12 12:22:48;;;;;;;5.03;4.00;;;26.30;87.30;;;;;;5056302;28;20390;-80
2021/06/12 12:25:25;;;;;;;4.32;3.72;;;27.70;83.40;;;;;;5054311;28;20744;-79
2021/06/12 12:28:08;;;;;;;3.83;3.53;;;29.00;76.70;;;;;;5055998;28;20059;-80
2021/06/12 12:30:36;;;;;;;5.43;4.07;;;29.50;69.80;;;;;;5056654;28;20098;-79
2021/06/12 12:33:06;;;;;;;3.60;3.30;;;29.30;68.10;;;;;;5056215;28;20025;-79
2021/06/12 12:35:32;;;;;;;6.28;3.70;;;29.40;69.80;;;;;;5064854;28;20044;-80
2021/06/12 12:38:13;;;;;;;6.07;4.15;;;28.90;71.60;;;;;;5076594;28;20436;-80
2021/06/12 12:40:39;;;;;;;5.53;4.13;;;27.80;74.50;;;;;;5074775;28;20040;-80